Time;durP1;ratioP1;P1;durP2;ratioP2;P2;SDS_P1;SDS_P2;PMS_P1;PMS_P2;Temp;Humidity;BMP_temperature;BMP_pressure;BME280_temperature;BME280_humidity;BME280_pressure;Samples;Min_cycle;Max_cycle;Signal;HPM_P1;HPM_P2
2022/04/27 00:00:34;;;;;;;6.68;2.15;;;;;;;;;;5054000;28;20407;-66
2022/04/27 00:03:02;;;;;;;6.47;2.25;;;;;;;;;;5056776;28;20040;-66
2022/04/27 00:05:28;;;;;;;6.45;2.40;;;;;;;;;;5056451;28;20384;-66
2022/04/27 00:07:55;;;;;;;6.85;2.17;;;;;;;;;;5046677;28;20029;-66
2022/04/27 00:10:21;;;;;;;8.25;2.90;;;;;;;;;;5047118;28;20390;-66
2022/04/27 00:12:47;;;;;;;9.15;3.13;;;;;;;;;;5060775;28;20057;-66
2022/04/27 00:15:14;;;;;;;9.05;2.80;;;;;;;;;;5060918;28;20047;-66
2022/04/27 00:17:41;;;;;;;7.55;2.80;;;;;;;;;;5045112;28;20124;-66
2022/04/27 00:20:08;;;;;;;10.30;2.70;;;;;;;;;;5046051;28;20066;-66
2022/04/27 00:22:34;;;;;;;8.20;2.55;;;;;;;;;;5064481;28;20132;-66
2022/04/27 00:25:01;;;;;;;9.27;2.70;;;;;;;;;;5042205;28;20044;-66
2022/04/27 00:27:28;;;;;;;11.05;2.83;;;;;;;;;;5050199;28;20188;-66
2022/04/27 00:29:55;;;;;;;8.27;2.28;;;;;;;;;;5047533;28;20048;-66
2022/04/27 00:32:21;;;;;;;8.38;2.65;;;;;;;;;;5045902;28;20045;-66
2022/04/27 00:34:47;;;;;;;9.73;3.00;;;;;;;;;;5064982;28;20075;-66
2022/04/27 00:37:13;;;;;;;10.27;2.97;;;;;;;;;;5047601;28;20059;-66
2022/04/27 00:39:39;;;;;;;8.27;2.72;;;;;;;;;;5044567;28;20447;-66
2022/04/27 00:42:17;;;;;;;10.57;2.70;;;;;;;;;;5047020;28;20506;-65
2022/04/27 00:44:45;;;;;;;14.13;2.92;;;;;;;;;;5053322;28;20120;-65
2022/04/27 00:47:12;;;;;;;9.50;3.08;;;;;;;;;;5047685;28;20063;-66
2022/04/27 00:49:41;;;;;;;9.43;3.00;;;;;;;;;;5063594;28;20076;-66
2022/04/27 00:52:09;;;;;;;7.15;3.28;;;;;;;;;;5048271;28;20185;-66
2022/04/27 00:54:35;;;;;;;8.90;2.80;;;;;;;;;;5064177;28;20097;-66
2022/04/27 00:57:01;;;;;;;10.52;3.22;;;;;;;;;;5064997;28;20143;-66
2022/04/27 00:59:28;;;;;;;8.00;2.72;;;;;;;;;;5062360;28;20072;-65
2022/04/27 01:01:54;;;;;;;7.15;2.40;;;;;;;;;;5060725;28;20033;-66
2022/04/27 01:04:20;;;;;;;8.40;2.88;;;;;;;;;;5064366;28;20174;-66
2022/04/27 01:06:46;;;;;;;7.97;2.70;;;;;;;;;;5060188;28;20914;-65
2022/04/27 01:09:13;;;;;;;10.13;3.38;;;;;;;;;;5060894;28;20144;-66
2022/04/27 01:11:39;;;;;;;6.05;2.47;;;;;;;;;;5044399;28;20400;-66
2022/04/27 01:14:05;;;;;;;9.45;3.25;;;;;;;;;;5063088;28;20123;-65
2022/04/27 01:16:31;;;;;;;8.98;3.08;;;;;;;;;;5065593;28;20041;-66
2022/04/27 01:18:58;;;;;;;9.27;2.97;;;;;;;;;;5066294;28;20093;-66
2022/04/27 01:21:26;;;;;;;5.50;2.85;;;;;;;;;;5044094;28;20072;-66
2022/04/27 01:23:52;;;;;;;10.85;2.97;;;;;;;;;;5064843;28;20041;-65
2022/04/27 01:26:19;;;;;;;9.32;2.92;;;;;;;;;;5048258;28;20643;-66
2022/04/27 01:28:45;;;;;;;5.53;2.53;;;;;;;;;;5065903;28;20036;-66
2022/04/27 01:31:11;;;;;;;6.97;2.63;;;;;;;;;;5064830;28;20041;-66
2022/04/27 01:33:38;;;;;;;13.40;2.72;;;;;;;;;;5045910;28;20040;-66
2022/04/27 01:36:05;;;;;;;8.00;3.03;;;;;;;;;;5049251;28;20044;-66
2022/04/27 01:38:35;;;;;;;6.43;2.97;;;;;;;;;;5061642;28;20539;-65
2022/04/27 01:41:02;;;;;;;8.55;3.05;;;;;;;;;;5065938;28;20437;-66
2022/04/27 01:43:29;;;;;;;9.85;2.88;;;;;;;;;;5060932;28;20052;-66
2022/04/27 01:45:55;;;;;;;9.43;3.45;;;;;;;;;;5063673;28;20492;-66
2022/04/27 01:48:22;;;;;;;12.98;3.03;;;;;;;;;;5043991;28;20127;-66
2022/04/27 01:50:48;;;;;;;11.50;3.72;;;;;;;;;;5045257;28;20045;-66
2022/04/27 01:55:59;;;;;;;10.98;3.63;;;;;;;;;;5061972;28;20993;-66
2022/04/27 01:58:26;;;;;;;8.48;2.85;;;;;;;;;;5062836;28;20044;-66
2022/04/27 02:00:53;;;;;;;6.30;2.58;;;;;;;;;;5047140;28;20048;-66
2022/04/27 02:03:21;;;;;;;9.02;3.33;;;;;;;;;;5063826;28;20040;-65
2022/04/27 02:05:48;;;;;;;11.43;3.60;;;;;;;;;;5063154;28;20152;-66
2022/04/27 02:08:14;;;;;;;8.27;3.03;;;;;;;;;;5064141;28;20537;-66
2022/04/27 02:10:40;;;;;;;6.93;2.70;;;;;;;;;;5060832;28;20391;-66
2022/04/27 02:13:07;;;;;;;9.20;3.22;;;;;;;;;;5062438;28;20039;-66
2022/04/27 02:15:34;;;;;;;6.50;3.00;;;;;;;;;;5062020;28;20484;-66
2022/04/27 02:18:01;;;;;;;8.55;2.95;;;;;;;;;;5039931;28;20126;-66
2022/04/27 02:20:27;;;;;;;7.15;2.88;;;;;;;;;;5041988;28;20082;-65
2022/04/27 02:22:53;;;;;;;9.30;3.03;;;;;;;;;;5062904;28;20392;-66
2022/04/27 02:25:20;;;;;;;7.35;2.53;;;;;;;;;;5063859;28;20063;-66
2022/04/27 02:27:47;;;;;;;9.30;3.15;;;;;;;;;;5063673;28;20052;-65
2022/04/27 02:30:13;;;;;;;6.43;2.67;;;;;;;;;;5045893;28;20044;-66
2022/04/27 02:32:40;;;;;;;7.15;2.50;;;;;;;;;;5061142;28;20554;-65
2022/04/27 02:35:07;;;;;;;7.13;2.72;;;;;;;;;;5046620;28;20396;-66
2022/04/27 02:37:33;;;;;;;6.93;2.40;;;;;;;;;;5063126;28;20545;-66
2022/04/27 02:40:00;;;;;;;7.55;2.97;;;;;;;;;;5064564;28;20136;-66
2022/04/27 02:42:27;;;;;;;4.72;2.72;;;;;;;;;;5045899;28;20438;-66
2022/04/27 02:44:53;;;;;;;4.78;2.70;;;;;;;;;;5064086;28;20080;-66
2022/04/27 02:47:19;;;;;;;7.80;2.58;;;;;;;;;;5061497;28;20041;-66
2022/04/27 02:52:31;;;;;;;5.38;2.25;;;;;;;;;;5044643;28;20044;-66
2022/04/27 02:54:57;;;;;;;4.95;1.98;;;;;;;;;;5045099;28;20483;-66
2022/04/27 02:57:23;;;;;;;4.22;2.00;;;;;;;;;;5061257;28;20040;-66
2022/04/27 02:59:50;;;;;;;5.47;2.05;;;;;;;;;;5044495;28;20056;-66
2022/04/27 03:02:16;;;;;;;6.70;2.00;;;;;;;;;;5055768;28;20063;-66
2022/04/27 03:04:43;;;;;;;3.78;1.60;;;;;;;;;;5055655;28;20498;-66
2022/04/27 03:07:09;;;;;;;5.10;1.98;;;;;;;;;;5042117;28;20492;-66
2022/04/27 03:09:36;;;;;;;8.07;2.08;;;;;;;;;;5046967;28;20128;-66
2022/04/27 03:12:02;;;;;;;5.97;2.00;;;;;;;;;;5060903;28;20465;-66
2022/04/27 03:14:28;;;;;;;5.13;1.90;;;;;;;;;;5061791;28;20041;-66
2022/04/27 03:16:55;;;;;;;4.55;1.73;;;;;;;;;;5058207;28;20048;-66
2022/04/27 03:19:21;;;;;;;7.25;1.98;;;;;;;;;;5038719;28;20055;-66
2022/04/27 03:21:47;;;;;;;6.68;1.70;;;;;;;;;;5056993;28;20048;-67
2022/04/27 03:24:14;;;;;;;4.57;2.22;;;;;;;;;;5041158;28;20041;-65
2022/04/27 03:26:40;;;;;;;8.50;2.20;;;;;;;;;;5058050;28;20460;-66
2022/04/27 03:29:07;;;;;;;5.38;2.00;;;;;;;;;;5047465;28;20048;-66
2022/04/27 03:31:33;;;;;;;6.78;2.03;;;;;;;;;;5061283;28;20059;-66
2022/04/27 03:33:59;;;;;;;8.25;2.13;;;;;;;;;;5061285;28;20056;-66
2022/04/27 03:36:26;;;;;;;6.30;2.17;;;;;;;;;;5042878;28;20048;-66
2022/04/27 03:38:52;;;;;;;6.90;2.30;;;;;;;;;;5044012;28;20163;-66
2022/04/27 03:41:22;;;;;;;5.53;2.00;;;;;;;;;;5043353;28;20059;-66
2022/04/27 03:43:50;;;;;;;7.13;2.28;;;;;;;;;;5044322;28;20370;-65
2022/04/27 03:46:19;;;;;;;7.72;2.17;;;;;;;;;;5042536;28;20171;-65
2022/04/27 03:48:46;;;;;;;7.75;2.45;;;;;;;;;;5040501;28;20052;-66
2022/04/27 03:51:12;;;;;;;10.00;2.05;;;;;;;;;;5038562;28;20211;-65
2022/04/27 03:53:39;;;;;;;4.95;2.05;;;;;;;;;;5043107;28;20040;-66
2022/04/27 03:56:06;;;;;;;4.55;2.05;;;;;;;;;;5067112;28;20041;-66
2022/04/27 03:58:32;;;;;;;6.03;2.25;;;;;;;;;;5049310;28;21737;-65
2022/04/27 04:00:59;;;;;;;5.88;1.83;;;;;;;;;;5048372;28;20056;-66
2022/04/27 04:03:25;;;;;;;8.38;2.45;;;;;;;;;;5062937;28;20044;-66
2022/04/27 04:05:51;;;;;;;9.10;2.72;;;;;;;;;;5065988;28;20364;-66
2022/04/27 04:08:17;;;;;;;4.90;1.80;;;;;;;;;;5064895;28;20029;-66
2022/04/27 04:10:45;;;;;;;6.10;1.80;;;;;;;;;;5064655;28;20091;-66
2022/04/27 04:13:12;;;;;;;11.15;2.30;;;;;;;;;;5049512;28;20377;-65
2022/04/27 04:15:38;;;;;;;9.10;2.10;;;;;;;;;;5051411;28;20087;-66
2022/04/27 04:18:05;;;;;;;9.00;2.10;;;;;;;;;;5047676;28;20079;-65
2022/04/27 04:20:31;;;;;;;9.38;1.80;;;;;;;;;;5047718;28;20066;-65
2022/04/27 04:22:58;;;;;;;10.82;2.90;;;;;;;;;;5047443;28;20479;-65
2022/04/27 04:30:54;;;;;;;9.32;2.58;;;;;;;;;;5065819;28;20037;-65
2022/04/27 04:33:20;;;;;;;11.65;3.00;;;;;;;;;;5065064;28;20102;-66
2022/04/27 04:35:47;;;;;;;6.78;2.38;;;;;;;;;;5047440;28;20048;-66
2022/04/27 04:38:13;;;;;;;7.28;2.55;;;;;;;;;;5064445;28;20136;-65
2022/04/27 04:40:39;;;;;;;10.02;2.65;;;;;;;;;;5065522;28;20491;-65
2022/04/27 04:43:05;;;;;;;13.38;2.78;;;;;;;;;;5064954;28;20036;-65
2022/04/27 04:45:31;;;;;;;7.63;2.40;;;;;;;;;;5066892;28;20048;-65
2022/04/27 04:47:58;;;;;;;7.70;2.47;;;;;;;;;;5062143;28;20047;-65
2022/04/27 04:50:24;;;;;;;9.52;2.30;;;;;;;;;;5061846;28;20044;-65
2022/04/27 04:52:50;;;;;;;9.18;2.60;;;;;;;;;;5064361;28;20049;-64
2022/04/27 04:55:16;;;;;;;9.27;2.85;;;;;;;;;;5042139;28;20357;-65
2022/04/27 04:57:42;;;;;;;4.60;2.25;;;;;;;;;;5065032;28;20105;-66
2022/04/27 05:00:09;;;;;;;12.90;2.92;;;;;;;;;;5065905;28;20134;-66
2022/04/27 05:02:35;;;;;;;5.07;2.47;;;;;;;;;;5048332;28;20045;-66
2022/04/27 05:05:03;;;;;;;8.07;2.72;;;;;;;;;;5050741;28;20126;-65
2022/04/27 05:07:30;;;;;;;6.45;2.13;;;;;;;;;;5049163;28;20052;-67
2022/04/27 05:09:56;;;;;;;8.43;3.08;;;;;;;;;;5067430;28;20051;-65
2022/04/27 05:12:23;;;;;;;8.07;2.33;;;;;;;;;;5069628;28;20063;-65
2022/04/27 05:14:49;;;;;;;8.20;2.75;;;;;;;;;;5064973;28;20041;-65
2022/04/27 05:17:15;;;;;;;7.20;2.90;;;;;;;;;;5068631;28;20133;-65
2022/04/27 05:19:42;;;;;;;7.97;3.13;;;;;;;;;;5069198;28;20032;-65
2022/04/27 05:22:08;;;;;;;11.45;3.60;;;;;;;;;;5065655;28;20044;-65
2022/04/27 05:24:34;;;;;;;12.98;2.97;;;;;;;;;;5044774;28;20135;-65
2022/04/27 05:27:01;;;;;;;11.07;4.32;;;;;;;;;;5047996;28;20044;-65
2022/04/27 05:32:12;;;;;;;8.15;3.13;;;;;;;;;;5065299;28;20492;-65
2022/04/27 05:34:38;;;;;;;6.30;2.80;;;;;;;;;;5067892;28;20548;-65
2022/04/27 05:37:05;;;;;;;8.68;2.78;;;;;;;;;;5045482;28;20131;-66
2022/04/27 05:39:31;;;;;;;12.02;3.40;;;;;;;;;;5044286;28;20071;-65
2022/04/27 05:41:57;;;;;;;8.50;3.05;;;;;;;;;;5064563;28;20120;-65
2022/04/27 05:44:24;;;;;;;7.80;3.03;;;;;;;;;;5067485;28;20040;-64
2022/04/27 05:46:51;;;;;;;8.23;3.60;;;;;;;;;;5049700;28;20036;-65
2022/04/27 05:49:18;;;;;;;7.50;2.90;;;;;;;;;;5066682;28;20051;-65
2022/04/27 05:51:44;;;;;;;8.60;3.50;;;;;;;;;;5051021;28;20048;-65
2022/04/27 05:54:10;;;;;;;7.97;3.90;;;;;;;;;;5067852;28;20037;-66
2022/04/27 05:56:37;;;;;;;11.15;3.28;;;;;;;;;;5069325;28;20053;-78
2022/04/27 05:59:03;;;;;;;14.13;3.47;;;;;;;;;;5067519;28;20029;-65
2022/04/27 06:01:30;;;;;;;7.97;3.70;;;;;;;;;;5064904;28;20349;-65
2022/04/27 06:03:56;;;;;;;9.73;3.42;;;;;;;;;;5061377;28;20092;-65
2022/04/27 06:06:23;;;;;;;9.45;3.92;;;;;;;;;;5061666;28;20056;-65
2022/04/27 06:08:50;;;;;;;8.30;4.13;;;;;;;;;;5062870;28;20044;-65
2022/04/27 06:11:16;;;;;;;6.85;3.50;;;;;;;;;;5061891;28;20380;-65
2022/04/27 06:13:43;;;;;;;10.02;3.78;;;;;;;;;;5049256;28;20086;-66
2022/04/27 06:16:10;;;;;;;9.10;3.97;;;;;;;;;;5045594;28;20072;-65
2022/04/27 06:18:36;;;;;;;13.18;3.92;;;;;;;;;;5046461;28;20052;-65
2022/04/27 06:21:03;;;;;;;9.80;3.22;;;;;;;;;;5047398;28;20434;-65
2022/04/27 06:23:31;;;;;;;10.55;3.72;;;;;;;;;;5049976;28;20067;-65
2022/04/27 06:25:57;;;;;;;8.15;2.70;;;;;;;;;;5065483;28;20049;-65
2022/04/27 06:28:24;;;;;;;12.68;3.60;;;;;;;;;;5049248;28;20040;-66
2022/04/27 06:30:50;;;;;;;10.65;3.40;;;;;;;;;;5066047;28;20223;-65
2022/04/27 06:33:16;;;;;;;10.25;3.97;;;;;;;;;;5045484;28;20155;-65
2022/04/27 06:35:43;;;;;;;10.52;4.20;;;;;;;;;;5068067;28;20154;-66
2022/04/27 06:38:09;;;;;;;10.20;3.40;;;;;;;;;;5066254;28;20057;-66
2022/04/27 06:40:35;;;;;;;13.65;3.55;;;;;;;;;;5067746;28;20048;-66
2022/04/27 06:43:01;;;;;;;14.73;4.55;;;;;;;;;;5066299;28;20036;-66
2022/04/27 06:45:28;;;;;;;10.15;3.38;;;;;;;;;;5061858;28;20049;-65
2022/04/27 06:47:54;;;;;;;12.43;3.50;;;;;;;;;;5048247;28;20040;-65
2022/04/27 06:50:21;;;;;;;12.35;3.58;;;;;;;;;;5066982;28;20036;-65
2022/04/27 06:52:47;;;;;;;21.77;4.18;;;;;;;;;;5066742;28;20048;-65
2022/04/27 06:55:14;;;;;;;17.58;3.78;;;;;;;;;;5065152;28;20040;-65
2022/04/27 06:57:40;;;;;;;19.02;4.10;;;;;;;;;;5047523;28;20055;-65
2022/04/27 07:00:08;;;;;;;16.75;3.67;;;;;;;;;;5042632;28;20088;-66
2022/04/27 07:02:35;;;;;;;15.48;3.30;;;;;;;;;;5045963;28;20109;-65
2022/04/27 07:05:02;;;;;;;19.77;4.35;;;;;;;;;;5066191;28;20044;-65
2022/04/27 07:07:28;;;;;;;19.65;3.40;;;;;;;;;;5063761;28;20032;-65
2022/04/27 07:09:56;;;;;;;17.65;3.55;;;;;;;;;;5045220;28;20424;-65
2022/04/27 07:12:22;;;;;;;14.48;2.70;;;;;;;;;;5067759;28;20082;-64
2022/04/27 07:14:48;;;;;;;12.50;2.85;;;;;;;;;;5063723;28;20539;-65
2022/04/27 07:17:15;;;;;;;14.52;2.65;;;;;;;;;;5064609;28;20139;-64
2022/04/27 07:19:41;;;;;;;16.50;3.58;;;;;;;;;;5066574;28;20028;-65
2022/04/27 07:22:08;;;;;;;23.05;3.30;;;;;;;;;;5067484;28;20218;-65
2022/04/27 07:24:34;;;;;;;14.00;2.83;;;;;;;;;;5066808;28;21414;-65
2022/04/27 07:27:00;;;;;;;18.27;3.25;;;;;;;;;;5047369;28;20095;-65
2022/04/27 07:29:26;;;;;;;12.38;2.85;;;;;;;;;;5067868;28;20041;-65
2022/04/27 07:31:52;;;;;;;16.60;3.08;;;;;;;;;;5049516;28;20464;-65
2022/04/27 07:34:19;;;;;;;14.30;3.75;;;;;;;;;;5065712;28;20511;-65
2022/04/27 07:36:45;;;;;;;19.48;3.40;;;;;;;;;;5066722;28;20087;-65
2022/04/27 07:39:12;;;;;;;12.18;3.40;;;;;;;;;;5064582;28;20098;-65
2022/04/27 07:41:38;;;;;;;19.48;3.30;;;;;;;;;;5064005;28;20053;-65
2022/04/27 07:44:06;;;;;;;13.77;3.78;;;;;;;;;;5061200;28;20069;-65
2022/04/27 07:46:33;;;;;;;16.67;2.90;;;;;;;;;;5058630;28;20075;-65
2022/04/27 07:48:59;;;;;;;20.67;3.05;;;;;;;;;;5061083;28;20082;-65
2022/04/27 07:51:25;;;;;;;14.80;2.92;;;;;;;;;;5045305;28;20180;-65
2022/04/27 07:53:51;;;;;;;12.40;2.78;;;;;;;;;;5044488;28;20106;-65
2022/04/27 07:56:17;;;;;;;18.25;2.90;;;;;;;;;;5061346;28;20123;-65
2022/04/27 07:58:43;;;;;;;13.82;2.72;;;;;;;;;;5060774;28;20036;-65
2022/04/27 08:01:09;;;;;;;14.75;3.42;;;;;;;;;;5055679;28;20172;-65
2022/04/27 08:03:36;;;;;;;12.57;2.72;;;;;;;;;;5058860;28;20468;-65
2022/04/27 08:06:03;;;;;;;16.45;3.08;;;;;;;;;;5057538;28;20185;-65
2022/04/27 08:08:29;;;;;;;16.63;3.15;;;;;;;;;;5062022;28;20079;-66
2022/04/27 08:10:56;;;;;;;17.73;3.17;;;;;;;;;;5061065;28;20573;-65
2022/04/27 08:13:22;;;;;;;17.25;2.63;;;;;;;;;;5061977;28;20051;-66
2022/04/27 08:15:48;;;;;;;14.02;2.95;;;;;;;;;;5060737;28;20380;-66
2022/04/27 08:18:15;;;;;;;9.95;2.15;;;;;;;;;;5042305;28;20045;-65
2022/04/27 08:23:29;;;;;;;11.23;2.30;;;;;;;;;;5059227;28;20052;-66
2022/04/27 08:25:55;;;;;;;16.17;2.83;;;;;;;;;;5062161;28;20072;-66
2022/04/27 08:28:21;;;;;;;10.27;2.70;;;;;;;;;;5064308;28;20051;-65
2022/04/27 08:30:48;;;;;;;12.98;2.83;;;;;;;;;;5062310;28;20043;-66
2022/04/27 08:33:16;;;;;;;14.27;2.75;;;;;;;;;;5065048;28;20051;-66
2022/04/27 08:35:42;;;;;;;15.35;2.65;;;;;;;;;;5042403;28;20068;-66
2022/04/27 08:38:09;;;;;;;13.18;2.55;;;;;;;;;;5031580;28;20052;-66
2022/04/27 08:40:36;;;;;;;20.38;3.22;;;;;;;;;;5067052;28;20041;-66
2022/04/27 08:43:03;;;;;;;15.60;2.88;;;;;;;;;;5065433;28;20399;-66
2022/04/27 08:45:30;;;;;;;24.38;3.38;;;;;;;;;;5069379;28;20368;-66
2022/04/27 08:47:56;;;;;;;11.43;2.67;;;;;;;;;;5047214;28;20102;-66
2022/04/27 08:50:23;;;;;;;17.48;2.70;;;;;;;;;;5069487;28;20395;-66
2022/04/27 08:52:50;;;;;;;14.20;2.75;;;;;;;;;;5048622;28;20047;-66
2022/04/27 08:55:17;;;;;;;15.68;2.60;;;;;;;;;;5070101;28;20044;-66
2022/04/27 08:57:43;;;;;;;19.52;2.88;;;;;;;;;;5064958;28;20032;-66
2022/04/27 09:00:11;;;;;;;17.38;2.85;;;;;;;;;;5062471;28;20048;-66
2022/04/27 09:02:38;;;;;;;11.38;2.53;;;;;;;;;;5063363;28;20071;-66
2022/04/27 09:05:06;;;;;;;12.65;3.00;;;;;;;;;;5042999;28;20587;-65
2022/04/27 09:07:37;;;;;;;14.00;2.95;;;;;;;;;;5042010;28;20064;-66
2022/04/27 09:10:03;;;;;;;14.60;2.42;;;;;;;;;;5062008;28;20462;-66
2022/04/27 09:12:29;;;;;;;12.57;2.67;;;;;;;;;;5042093;28;20049;-66
2022/04/27 09:15:04;;;;;;;10.45;2.42;;;;;;;;;;5046302;28;20053;-65
2022/04/27 09:23:02;;;;;;;12.07;2.35;;;;;;;;;;5066204;28;20185;-66
2022/04/27 09:25:35;;;;;;;14.88;2.45;;;;;;;;;;5067015;28;20097;-66
2022/04/27 09:28:02;;;;;;;11.53;2.07;;;;;;;;;;5029247;28;20409;-66
2022/04/27 09:30:29;;;;;;;8.85;2.50;;;;;;;;;;5047626;28;20062;-66
2022/04/27 09:32:55;;;;;;;13.10;2.40;;;;;;;;;;5068897;28;20036;-66
2022/04/27 09:35:33;;;;;;;14.50;2.65;;;;;;;;;;5066519;28;20107;-66
2022/04/27 09:38:13;;;;;;;12.07;2.88;;;;;;;;;;5067511;28;20075;-66
2022/04/27 09:40:44;;;;;;;16.05;3.47;;;;;;;;;;5049072;28;20124;-66
2022/04/27 09:43:12;;;;;;;16.55;3.05;;;;;;;;;;5065758;28;20496;-66
2022/04/27 09:45:39;;;;;;;13.93;2.38;;;;;;;;;;5069262;28;20040;-66
2022/04/27 09:48:05;;;;;;;11.73;2.45;;;;;;;;;;5049524;28;20084;-66
2022/04/27 09:50:47;;;;;;;10.50;1.90;;;;;;;;;;5064055;28;20041;-66
2022/04/27 09:53:15;;;;;;;12.65;2.42;;;;;;;;;;5067639;28;20041;-66
2022/04/27 09:55:45;;;;;;;11.77;2.45;;;;;;;;;;5067511;28;20453;-66
2022/04/27 09:58:12;;;;;;;14.40;3.30;;;;;;;;;;5067260;28;20048;-66
2022/04/27 10:00:41;;;;;;;15.02;2.47;;;;;;;;;;5064465;28;20090;-66
2022/04/27 10:03:08;;;;;;;9.77;2.65;;;;;;;;;;5066442;28;20391;-66
2022/04/27 10:05:34;;;;;;;12.50;2.38;;;;;;;;;;5068765;28;20074;-66
2022/04/27 10:08:01;;;;;;;15.13;2.28;;;;;;;;;;5068595;28;20033;-66
2022/04/27 10:10:28;;;;;;;12.27;2.28;;;;;;;;;;5065458;28;20081;-66
2022/04/27 10:12:54;;;;;;;18.35;3.00;;;;;;;;;;5067549;28;20036;-66
2022/04/27 10:15:20;;;;;;;12.93;2.55;;;;;;;;;;5067142;28;20148;-66
2022/04/27 10:17:47;;;;;;;13.52;3.13;;;;;;;;;;5046657;28;20110;-66
2022/04/27 10:20:31;;;;;;;12.48;2.65;;;;;;;;;;5044440;28;20048;-66
2022/04/27 10:23:16;;;;;;;11.05;1.92;;;;;;;;;;5046652;28;20045;-66
2022/04/27 10:26:02;;;;;;;13.48;2.72;;;;;;;;;;5067299;28;20128;-65
2022/04/27 10:28:29;;;;;;;11.90;2.50;;;;;;;;;;5048450;28;20345;-65
2022/04/27 10:30:56;;;;;;;13.00;2.78;;;;;;;;;;5064684;28;20044;-66
2022/04/27 10:33:40;;;;;;;11.85;2.40;;;;;;;;;;5067073;28;20476;-66
2022/04/27 10:36:22;;;;;;;14.38;3.47;;;;;;;;;;5066841;28;20048;-66
2022/04/27 10:39:21;;;;;;;13.13;2.78;;;;;;;;;;5064640;28;20147;-66
2022/04/27 10:41:54;;;;;;;12.52;2.47;;;;;;;;;;5066089;28;20037;-66
2022/04/27 10:44:21;;;;;;;8.13;2.50;;;;;;;;;;5065140;28;20048;-65
2022/04/27 10:46:47;;;;;;;12.27;2.45;;;;;;;;;;5067667;28;21375;-66
2022/04/27 10:49:24;;;;;;;10.48;2.13;;;;;;;;;;5049511;28;20429;-66
2022/04/27 10:52:01;;;;;;;12.63;2.17;;;;;;;;;;5044152;28;20044;-66
2022/04/27 10:54:27;;;;;;;12.90;2.58;;;;;;;;;;5067550;28;20105;-66
2022/04/27 10:56:54;;;;;;;10.98;2.80;;;;;;;;;;5048839;28;20492;-66
2022/04/27 10:59:38;;;;;;;16.40;2.38;;;;;;;;;;5062315;28;20476;-66
2022/04/27 11:02:05;;;;;;;16.20;3.08;;;;;;;;;;5048247;28;20041;-66
2022/04/27 11:04:33;;;;;;;10.20;2.50;;;;;;;;;;5065568;28;20045;-66
2022/04/27 11:06:59;;;;;;;10.85;2.65;;;;;;;;;;5048541;28;20398;-66
2022/04/27 11:09:29;;;;;;;18.17;3.03;;;;;;;;;;5046249;28;20127;-66
2022/04/27 11:11:56;;;;;;;10.02;2.05;;;;;;;;;;5067701;28;20132;-66
2022/04/27 11:14:28;;;;;;;10.18;2.15;;;;;;;;;;5066852;28;20153;-66
2022/04/27 11:16:55;;;;;;;10.05;2.47;;;;;;;;;;5061169;28;20054;-66
2022/04/27 11:19:21;;;;;;;10.13;2.15;;;;;;;;;;5045880;28;20052;-65
2022/04/27 11:21:48;;;;;;;16.25;2.88;;;;;;;;;;5067315;28;20048;-81
2022/04/27 11:24:15;;;;;;;12.27;2.88;;;;;;;;;;5062473;28;20375;-65
2022/04/27 11:26:46;;;;;;;11.75;2.55;;;;;;;;;;5066792;28;20109;-66
2022/04/27 11:29:12;;;;;;;12.00;2.42;;;;;;;;;;5050282;28;20119;-66
2022/04/27 11:31:39;;;;;;;10.80;2.88;;;;;;;;;;5047414;28;20698;-66
2022/04/27 11:34:23;;;;;;;11.05;2.10;;;;;;;;;;5039738;28;20094;-66
2022/04/27 11:36:50;;;;;;;;;;;;;;;;;;5041675;28;20045;-66
2022/04/27 11:39:22;;;;;;;10.68;2.17;;;;;;;;;;5057085;28;19925;-65
2022/04/27 11:41:57;;;;;;;13.23;2.97;;;;;;;;;;5045892;28;20045;-66
2022/04/27 11:44:24;;;;;;;12.00;2.75;;;;;;;;;;5043480;28;20135;-66
2022/04/27 11:46:51;;;;;;;13.13;2.78;;;;;;;;;;5043724;28;20056;-65
2022/04/27 11:49:17;;;;;;;8.90;1.70;;;;;;;;;;5063675;28;20532;-66
2022/04/27 11:51:48;;;;;;;10.70;2.00;;;;;;;;;;5064270;28;20036;-65
2022/04/27 11:54:25;;;;;;;9.65;2.22;;;;;;;;;;5060056;28;20049;-66
2022/04/27 11:56:57;;;;;;;10.50;2.85;;;;;;;;;;5062748;28;20047;-66
2022/04/27 11:59:24;;;;;;;9.05;2.13;;;;;;;;;;5040977;28;20411;-66
2022/04/27 12:01:51;;;;;;;10.65;2.55;;;;;;;;;;5055451;28;20505;-66
2022/04/27 12:04:18;;;;;;;9.65;1.90;;;;;;;;;;5061501;28;20137;-66
2022/04/27 12:06:45;;;;;;;9.98;2.22;;;;;;;;;;5060277;28;20040;-66
2022/04/27 12:09:18;;;;;;;9.10;2.33;;;;;;;;;;5055708;28;20404;-66
2022/04/27 12:11:45;;;;;;;9.18;1.90;;;;;;;;;;5038190;28;20128;-66
2022/04/27 12:14:11;;;;;;;12.27;2.00;;;;;;;;;;5039429;28;20053;-66
2022/04/27 12:16:42;;;;;;;12.45;2.55;;;;;;;;;;5061008;28;20041;-66
2022/04/27 12:19:09;;;;;;;10.82;2.55;;;;;;;;;;5061879;28;20457;-66
2022/04/27 12:21:37;;;;;;;9.23;1.95;;;;;;;;;;5043652;28;20141;-66
2022/04/27 12:24:17;;;;;;;9.45;1.90;;;;;;;;;;5047367;28;20488;-66
2022/04/27 12:26:43;;;;;;;11.30;2.90;;;;;;;;;;5062702;28;20102;-66
2022/04/27 12:29:09;;;;;;;8.10;1.95;;;;;;;;;;5064334;28;20436;-66
2022/04/27 12:31:37;;;;;;;11.70;2.53;;;;;;;;;;5045541;28;20041;-66
2022/04/27 12:37:29;;;;;;;8.10;2.10;;;;;;;;;;5063053;28;20055;-66
2022/04/27 12:39:40;;;;;;;17.70;2.30;;;;;;;;;;5025824;28;20041;-67
2022/04/27 12:42:08;;;;;;;9.88;2.50;;;;;;;;;;5022147;28;20053;-66
2022/04/27 12:44:38;;;;;;;8.60;1.90;;;;;;;;;;5025894;28;20164;-66
2022/04/27 12:47:08;;;;;;;8.93;1.95;;;;;;;;;;5024333;28;20110;-66
2022/04/27 12:49:35;;;;;;;8.88;2.40;;;;;;;;;;5023667;28;20044;-66
2022/04/27 12:52:20;;;;;;;12.15;2.33;;;;;;;;;;5021046;28;20045;-66
2022/04/27 12:54:47;;;;;;;12.32;2.90;;;;;;;;;;5021916;28;20038;-66
2022/04/27 12:57:14;;;;;;;10.20;2.95;;;;;;;;;;5023989;28;20126;-66
2022/04/27 12:59:54;;;;;;;9.80;2.20;;;;;;;;;;5021548;28;20131;-66
2022/04/27 13:02:21;;;;;;;10.80;2.55;;;;;;;;;;5021455;28;20050;-66
2022/04/27 13:04:47;;;;;;;9.75;2.00;;;;;;;;;;5020168;28;20049;-77
2022/04/27 13:07:13;;;;;;;10.23;2.30;;;;;;;;;;5022824;28;20056;-66
2022/04/27 13:12:29;;;;;;;10.23;2.10;;;;;;;;;;5025028;28;20054;-66
2022/04/27 13:14:56;;;;;;;9.30;2.13;;;;;;;;;;5019529;28;20041;-66
2022/04/27 13:18:06;;;;;;;8.63;2.45;;;;;;;;;;5145626;27;20404;-65
2022/04/27 13:20:32;;;;;;;9.20;1.90;;;;;;;;;;5121277;27;20047;-65
2022/04/27 13:22:58;;;;;;;10.35;2.03;;;;;;;;;;5102336;27;20112;-64
2022/04/27 13:25:24;;;;;;;10.75;2.03;;;;;;;;;;5124678;27;20042;-64
2022/04/27 13:27:51;;;;;;;10.85;2.28;;;;;;;;;;5090918;27;20471;-65
2022/04/27 13:30:18;;;;;;;10.38;1.67;;;;;;;;;;5108231;27;20047;-64
2022/04/27 13:32:44;;;;;;;9.82;2.28;;;;;;;;;;5126705;27;20046;-64
2022/04/27 13:35:10;;;;;;;16.40;2.78;;;;;;;;;;5122378;27;20486;-64
2022/04/27 13:37:36;;;;;;;13.68;3.28;;;;;;;;;;5121169;27;20047;-65
2022/04/27 13:40:03;;;;;;;10.50;2.70;;;;;;;;;;5102343;27;20050;-65
2022/04/27 13:42:29;;;;;;;7.60;1.90;;;;;;;;;;5108463;27;20088;-66
2022/04/27 13:44:55;;;;;;;9.13;2.00;;;;;;;;;;5125702;27;20114;-66
2022/04/27 13:47:22;;;;;;;8.75;1.90;;;;;;;;;;5126213;27;20494;-66
2022/04/27 13:49:49;;;;;;;8.85;2.60;;;;;;;;;;5126920;27;20047;-66
2022/04/27 13:52:15;;;;;;;9.23;1.95;;;;;;;;;;5108239;27;20462;-66
2022/04/27 13:54:41;;;;;;;8.57;2.00;;;;;;;;;;5126093;27;20081;-66
2022/04/27 13:57:07;;;;;;;9.05;2.10;;;;;;;;;;5107470;27;20043;-66
2022/04/27 13:59:33;;;;;;;7.38;1.90;;;;;;;;;;5107330;28;20376;-66
2022/04/27 14:02:02;;;;;;;15.13;2.67;;;;;;;;;;5126235;27;20044;-66
2022/04/27 14:04:29;;;;;;;10.75;2.00;;;;;;;;;;5126188;27;20063;-66
2022/04/27 14:06:55;;;;;;;9.35;1.95;;;;;;;;;;5127379;27;20043;-66
2022/04/27 14:09:21;;;;;;;9.45;3.25;;;;;;;;;;5126256;27;20035;-66
2022/04/27 14:14:32;;;;;;;10.30;2.67;;;;;;;;;;5128124;28;20039;-66
2022/04/27 14:19:43;;;;;;;11.18;2.60;;;;;;;;;;5105428;27;20047;-66
2022/04/27 14:22:11;;;;;;;11.02;2.60;;;;;;;;;;5107292;27;20039;-66
2022/04/27 14:24:38;;;;;;;10.25;2.30;;;;;;;;;;5125241;27;21660;-66
2022/04/27 14:27:05;;;;;;;9.27;2.22;;;;;;;;;;5125176;27;20096;-66
2022/04/27 14:29:31;;;;;;;8.82;2.33;;;;;;;;;;5092218;27;20089;-66
2022/04/27 14:32:02;;;;;;;11.13;2.30;;;;;;;;;;5110237;27;20055;-66
2022/04/27 14:34:30;;;;;;;5.65;1.98;;;;;;;;;;5092793;28;20383;-66
2022/04/27 14:36:57;;;;;;;14.27;2.88;;;;;;;;;;5108225;27;20154;-66
2022/04/27 14:39:23;;;;;;;18.23;3.13;;;;;;;;;;5109379;27;20092;-66
2022/04/27 14:41:50;;;;;;;12.73;2.40;;;;;;;;;;5112683;27;20043;-66
2022/04/27 14:44:20;;;;;;;10.00;2.25;;;;;;;;;;5113921;27;20120;-80
2022/04/27 14:46:48;;;;;;;11.00;2.30;;;;;;;;;;5124611;27;20499;-66
2022/04/27 14:49:14;;;;;;;13.25;2.28;;;;;;;;;;5093200;27;20047;-66
2022/04/27 14:51:44;;;;;;;10.00;2.35;;;;;;;;;;5097636;27;20047;-66
2022/04/27 14:54:11;;;;;;;9.73;2.22;;;;;;;;;;5099895;27;20483;-66
2022/04/27 14:56:38;;;;;;;8.10;2.50;;;;;;;;;;5118943;27;22048;-66
2022/04/27 14:59:04;;;;;;;16.92;2.28;;;;;;;;;;5113106;27;20045;-66
2022/04/27 15:01:30;;;;;;;11.13;2.20;;;;;;;;;;5124466;27;20050;-66
2022/04/27 15:03:57;;;;;;;7.70;2.25;;;;;;;;;;5114511;27;20092;-66
2022/04/27 15:06:24;;;;;;;7.13;2.00;;;;;;;;;;5109745;27;20035;-66
2022/04/27 15:08:50;;;;;;;11.57;2.70;;;;;;;;;;5115111;27;20039;-66
2022/04/27 15:11:17;;;;;;;10.98;2.33;;;;;;;;;;5115438;27;20038;-66